Time;durP1;ratioP1;P1;durP2;ratioP2;P2;SDS_P1;SDS_P2;PMS_P1;PMS_P2;Temp;Humidity;BMP_temperature;BMP_pressure;BME280_temperature;BME280_humidity;BME280_pressure;Samples;Min_cycle;Max_cycle;Signal;HPM_P1;HPM_P2
2022/10/02 00:01:49;;;;;;;1.38;0.40;;;13.60;99.90;;;;;;5037031;28;20487;-70
2022/10/02 00:04:22;;;;;;;1.50;0.50;;;13.60;99.90;;;;;;5036724;28;20492;-70
2022/10/02 00:06:50;;;;;;;1.95;0.47;;;13.60;99.90;;;;;;5054263;28;20036;-70
2022/10/02 00:09:25;;;;;;;0.80;0.80;;;13.50;99.90;;;;;;5054549;28;20027;-70
2022/10/02 00:11:56;;;;;;;3.42;0.40;;;13.50;99.90;;;;;;5054607;28;20040;-70
2022/10/02 00:14:24;;;;;;;1.20;0.40;;;13.50;99.90;;;;;;5054381;28;20063;-70
2022/10/02 00:16:53;;;;;;;1.00;0.60;;;13.60;99.90;;;;;;5036631;28;20025;-70
2022/10/02 00:19:19;;;;;;;;;;;13.50;99.90;;;;;;5054372;28;20041;-70
2022/10/02 00:21:56;;;;;;;1.05;0.43;;;13.60;99.90;;;;;;5036756;28;20007;-70
2022/10/02 00:24:51;;;;;;;0.85;0.28;;;13.60;99.90;;;;;;5036423;28;20025;-70
2022/10/02 00:27:39;;;;;;;0.38;0.35;;;13.60;99.90;;;;;;5049771;28;20111;-70
2022/10/02 00:30:08;;;;;;;0.63;0.30;;;13.60;99.90;;;;;;5036561;28;20424;-69
2022/10/02 00:32:49;;;;;;;0.98;0.20;;;13.60;99.90;;;;;;5054298;28;20033;-70
2022/10/02 00:35:42;;;;;;;1.92;0.30;;;13.60;99.90;;;;;;5054353;28;20112;-70
2022/10/02 00:38:28;;;;;;;1.27;0.43;;;13.60;99.90;;;;;;5036688;28;20059;-71
2022/10/02 00:41:18;;;;;;;0.38;0.25;;;13.60;99.90;;;;;;5054462;28;20083;-70
2022/10/02 00:44:03;;;;;;;0.30;0.30;;;13.60;99.90;;;;;;5053903;28;20382;-70
2022/10/02 00:46:38;;;;;;;2.05;0.28;;;13.60;99.90;;;;;;5054408;28;20350;-70
2022/10/02 00:49:21;;;;;;;0.30;0.30;;;13.50;99.90;;;;;;5036083;28;20029;-70
2022/10/02 00:52:31;;;;;;;2.95;0.30;;;13.50;99.90;;;;;;5054222;28;20036;-70
2022/10/02 00:55:28;;;;;;;1.23;0.22;;;13.50;99.90;;;;;;5036070;28;20025;-70
2022/10/02 00:58:11;;;;;;;1.05;0.20;;;13.40;99.90;;;;;;5053940;28;20025;-71
2022/10/02 01:00:39;;;;;;;0.85;0.20;;;13.50;99.90;;;;;;5053729;28;20026;-70
2022/10/02 01:03:10;;;;;;;0.28;0.10;;;13.50;99.90;;;;;;5035520;28;20436;-70
2022/10/02 01:05:36;;;;;;;2.35;0.25;;;13.50;99.90;;;;;;5054196;28;20471;-70
2022/10/02 01:08:02;;;;;;;0.82;0.17;;;13.50;99.90;;;;;;5053836;28;20377;-71
2022/10/02 01:10:29;;;;;;;0.10;0.10;;;13.50;99.90;;;;;;5035823;28;20464;-71
2022/10/02 01:12:55;;;;;;;0.73;0.20;;;13.50;99.90;;;;;;5053538;28;20033;-71
2022/10/02 01:15:28;;;;;;;0.20;0.20;;;13.50;99.90;;;;;;5035905;28;20384;-70
2022/10/02 01:17:55;;;;;;;0.10;0.10;;;13.40;99.90;;;;;;5053733;28;20469;-71
2022/10/02 01:20:42;;;;;;;0.17;0.10;;;13.40;99.90;;;;;;5053484;28;20025;-71
2022/10/02 01:23:25;;;;;;;0.52;0.10;;;13.40;99.90;;;;;;5053416;28;20473;-71
2022/10/02 01:25:51;;;;;;;0.10;0.10;;;13.40;99.90;;;;;;5036100;28;20025;-71
2022/10/02 01:28:18;;;;;;;1.90;0.10;;;13.40;99.90;;;;;;5053162;28;20025;-71
2022/10/02 01:30:46;;;;;;;0.90;0.20;;;13.40;99.90;;;;;;5053480;28;20026;-71
2022/10/02 01:33:13;;;;;;;0.57;0.10;;;13.40;99.90;;;;;;5053506;28;20082;-71
2022/10/02 01:35:39;;;;;;;2.60;0.10;;;13.40;99.90;;;;;;5054705;28;20041;-71
2022/10/02 01:38:10;;;;;;;2.28;0.20;;;13.40;99.90;;;;;;5057129;28;20021;-71
2022/10/02 01:40:38;;;;;;;3.25;0.20;;;13.50;99.90;;;;;;5057255;28;20033;-71
2022/10/02 01:43:08;;;;;;;4.57;0.80;;;13.50;99.90;;;;;;5039423;28;20362;-71
2022/10/02 01:45:52;;;;;;;0.22;0.00;;;13.40;99.90;;;;;;5057181;28;20044;-71
2022/10/02 01:48:21;;;;;;;0.45;0.10;;;13.40;99.90;;;;;;5039629;28;20036;-71
2022/10/02 01:51:00;;;;;;;2.42;0.10;;;13.40;99.90;;;;;;5057453;28;20036;-71
2022/10/02 01:53:44;;;;;;;1.42;0.25;;;13.40;99.90;;;;;;5056636;28;20040;-71
2022/10/02 01:56:22;;;;;;;0.32;0.10;;;13.30;99.90;;;;;;5056853;28;20033;-71
2022/10/02 01:59:15;;;;;;;0.22;0.20;;;13.30;99.90;;;;;;5039252;28;20124;-71
2022/10/02 02:01:50;;;;;;;1.55;0.10;;;13.20;99.90;;;;;;5057185;28;20043;-71
2022/10/02 02:04:22;;;;;;;0.35;0.20;;;13.30;99.90;;;;;;5038002;28;20135;-71
2022/10/02 02:07:09;;;;;;;0.10;0.10;;;13.30;99.90;;;;;;5037462;28;20029;-72
2022/10/02 02:10:07;;;;;;;1.38;0.08;;;13.30;99.90;;;;;;5037507;28;20060;-71
2022/10/02 02:12:39;;;;;;;1.42;0.73;;;13.30;99.90;;;;;;5036278;28;20044;-70
2022/10/02 02:15:46;;;;;;;1.15;0.03;;;13.20;99.90;;;;;;5055394;28;20033;-71
2022/10/02 02:18:11;;;;;;;1.15;0.30;;;13.20;99.90;;;;;;4954858;29;20562;-71
2022/10/02 02:20:45;;;;;;;0.90;0.10;;;13.20;99.90;;;;;;4954981;29;20118;-71
2022/10/02 02:23:15;;;;;;;0.55;0.13;;;13.20;99.90;;;;;;5008914;28;20072;-71
2022/10/02 02:25:44;;;;;;;0.63;0.20;;;13.10;99.90;;;;;;5037219;28;20488;-71
2022/10/02 02:28:13;;;;;;;0.35;0.10;;;13.00;99.90;;;;;;5055108;28;20029;-71
2022/10/02 02:30:43;;;;;;;0.13;0.03;;;13.00;99.90;;;;;;5055077;28;20401;-71
2022/10/02 02:33:23;;;;;;;;;;;13.00;99.90;;;;;;5055331;28;20025;-71
2022/10/02 02:35:53;;;;;;;0.75;0.10;;;12.90;99.90;;;;;;5054922;28;20426;-71
2022/10/02 02:38:31;;;;;;;0.82;0.00;;;12.90;99.90;;;;;;5054984;28;20369;-71
2022/10/02 02:41:02;;;;;;;0.80;0.20;;;12.80;99.90;;;;;;5037084;28;20108;-72
2022/10/02 02:43:34;;;;;;;0.73;0.10;;;12.80;99.90;;;;;;5037269;28;20029;-72
2022/10/02 02:46:07;;;;;;;0.22;0.20;;;12.80;99.90;;;;;;5054477;28;20393;-71
2022/10/02 02:48:50;;;;;;;0.38;0.00;;;12.70;99.90;;;;;;5054523;28;20023;-72
2022/10/02 02:51:25;;;;;;;0.15;0.10;;;12.70;99.90;;;;;;5054843;28;20139;-71
2022/10/02 02:54:04;;;;;;;2.00;0.10;;;12.60;99.90;;;;;;5054851;28;20025;-71
2022/10/02 02:56:32;;;;;;;1.45;0.10;;;12.50;99.90;;;;;;5055095;28;20099;-71
2022/10/02 02:59:08;;;;;;;2.53;0.10;;;12.60;99.90;;;;;;5036944;28;20045;-71
2022/10/02 03:01:34;;;;;;;3.92;0.30;;;12.50;99.90;;;;;;5037916;28;20024;-72
2022/10/02 03:04:00;;;;;;;1.55;0.10;;;12.50;99.90;;;;;;5019639;28;1120044;-73
2022/10/02 03:06:36;;;;;;;0.30;0.10;;;12.60;99.90;;;;;;5059770;28;20025;-72
2022/10/02 03:09:10;;;;;;;0.00;0.00;;;12.60;99.90;;;;;;5058857;28;20455;-74
2022/10/02 03:12:11;;;;;;;0.30;0.13;;;12.50;99.90;;;;;;5059056;28;20025;-72
2022/10/02 03:14:45;;;;;;;0.25;0.03;;;12.50;99.90;;;;;;5058944;28;20097;-71
2022/10/02 03:17:35;;;;;;;1.00;0.38;;;12.60;99.90;;;;;;5041547;28;20082;-71
2022/10/02 03:20:23;;;;;;;0.90;0.13;;;12.60;99.90;;;;;;5058201;28;20108;-72
2022/10/02 03:23:13;;;;;;;0.80;0.10;;;12.50;99.90;;;;;;5056437;28;20029;-72
2022/10/02 03:25:52;;;;;;;2.50;0.20;;;12.50;99.90;;;;;;5039363;28;20032;-71
2022/10/02 03:28:37;;;;;;;0.70;0.10;;;12.40;99.90;;;;;;5056256;28;20372;-71
2022/10/02 03:31:04;;;;;;;1.23;0.20;;;12.40;99.90;;;;;;5055991;28;20031;-71
2022/10/02 03:33:32;;;;;;;2.17;0.10;;;12.40;99.90;;;;;;5057316;28;20119;-72
2022/10/02 03:35:58;;;;;;;0.88;0.20;;;12.40;99.90;;;;;;5057341;28;20064;-71
2022/10/02 03:38:26;;;;;;;0.30;0.10;;;12.40;99.90;;;;;;5058203;28;20033;-72
2022/10/02 03:40:56;;;;;;;0.25;0.15;;;12.50;99.90;;;;;;5058108;28;20064;-71
2022/10/02 03:43:25;;;;;;;0.45;0.03;;;12.40;99.90;;;;;;5057292;28;20121;-71
2022/10/02 03:45:51;;;;;;;0.73;0.10;;;12.50;99.90;;;;;;5040384;28;20025;-71
2022/10/02 03:48:16;;;;;;;1.65;0.10;;;12.40;99.90;;;;;;5057663;28;20044;-71
2022/10/02 03:50:43;;;;;;;2.03;0.10;;;12.40;99.90;;;;;;5037997;28;20516;-71
2022/10/02 03:53:20;;;;;;;0.43;0.13;;;12.40;99.90;;;;;;5056825;28;20067;-71
2022/10/02 03:56:12;;;;;;;0.70;0.10;;;12.40;99.90;;;;;;5037246;28;20461;-72
2022/10/02 03:58:44;;;;;;;1.17;0.00;;;12.30;99.90;;;;;;5055592;28;20054;-72
2022/10/02 04:01:22;;;;;;;1.45;0.10;;;12.30;99.90;;;;;;5038984;28;20124;-71
2022/10/02 04:04:11;;;;;;;0.17;0.10;;;12.30;99.90;;;;;;5056364;28;20053;-71
2022/10/02 04:06:50;;;;;;;1.27;0.10;;;12.30;99.90;;;;;;5055238;28;20115;-72
2022/10/02 04:09:15;;;;;;;;;;;12.30;99.90;;;;;;5037539;28;20033;-72
2022/10/02 04:12:06;;;;;;;1.67;0.10;;;12.20;99.90;;;;;;5055356;28;19959;-71
2022/10/02 04:14:44;;;;;;;0.52;0.15;;;12.20;99.90;;;;;;5054647;28;20117;-71
2022/10/02 04:17:34;;;;;;;1.25;0.10;;;12.20;99.90;;;;;;5037163;28;20103;-71
2022/10/02 04:20:09;;;;;;;0.38;0.10;;;12.20;99.90;;;;;;5054492;28;20083;-71
2022/10/02 04:22:38;;;;;;;0.13;0.00;;;12.20;99.90;;;;;;5054787;28;20033;-71
2022/10/02 04:25:16;;;;;;;1.40;0.17;;;12.20;99.90;;;;;;5036699;28;20029;-71
2022/10/02 04:27:45;;;;;;;2.55;0.32;;;12.20;99.90;;;;;;5036999;28;20021;-70
2022/10/02 04:30:15;;;;;;;0.95;0.25;;;12.10;99.90;;;;;;5054877;28;20035;-70
2022/10/02 04:32:41;;;;;;;0.47;0.15;;;12.10;99.90;;;;;;5054290;28;20090;-70
2022/10/02 04:35:14;;;;;;;1.10;0.20;;;12.10;99.90;;;;;;5054327;28;20044;-71
2022/10/02 04:38:05;;;;;;;2.67;0.30;;;12.10;99.90;;;;;;5053860;28;20100;-71
2022/10/02 04:41:09;;;;;;;0.30;0.25;;;12.00;99.90;;;;;;5036211;28;20119;-71
2022/10/02 04:43:46;;;;;;;3.10;0.30;;;12.10;99.90;;;;;;4955529;28;20040;-70
2022/10/02 04:46:33;;;;;;;0.70;0.15;;;12.10;99.90;;;;;;5036637;28;20029;-70
2022/10/02 04:49:19;;;;;;;0.75;0.20;;;12.20;99.90;;;;;;5054358;28;20467;-70
2022/10/02 04:51:54;;;;;;;4.20;0.20;;;12.20;99.90;;;;;;5053715;28;20036;-71
2022/10/02 04:54:23;;;;;;;2.28;0.10;;;12.20;99.90;;;;;;5036450;28;20032;-70
2022/10/02 04:57:00;;;;;;;0.73;0.10;;;12.30;99.90;;;;;;5053388;28;20021;-70
2022/10/02 05:00:01;;;;;;;2.97;0.15;;;12.30;99.90;;;;;;5035899;28;20282;-70
2022/10/02 05:02:43;;;;;;;0.45;0.10;;;12.20;99.90;;;;;;5053599;28;20033;-71
2022/10/02 05:05:35;;;;;;;2.30;1.02;;;12.20;99.90;;;;;;5053644;28;20033;-70
2022/10/02 05:08:19;;;;;;;7.28;0.55;;;12.10;99.90;;;;;;5053470;28;20021;-70
2022/10/02 05:10:53;;;;;;;2.50;0.20;;;12.10;99.90;;;;;;5055637;28;20411;-70
2022/10/02 05:13:31;;;;;;;2.33;0.30;;;12.20;99.90;;;;;;5057393;28;20426;-71
2022/10/02 05:16:00;;;;;;;1.33;0.20;;;12.20;99.90;;;;;;5057604;28;20068;-70
2022/10/02 05:18:49;;;;;;;0.98;0.30;;;12.30;99.90;;;;;;5039710;28;20056;-70
2022/10/02 05:21:39;;;;;;;0.28;0.15;;;12.20;99.90;;;;;;5039734;28;20484;-70
2022/10/02 05:24:20;;;;;;;1.48;0.20;;;12.20;99.90;;;;;;5057514;28;20033;-71
2022/10/02 05:26:48;;;;;;;1.92;0.10;;;12.30;99.90;;;;;;5057442;28;20029;-70
2022/10/02 05:29:39;;;;;;;1.70;0.10;;;12.30;99.90;;;;;;5056990;28;20025;-71
2022/10/02 05:32:05;;;;;;;0.88;0.08;;;12.30;99.90;;;;;;5057169;28;20029;-70
2022/10/02 05:34:36;;;;;;;3.25;0.35;;;12.30;99.90;;;;;;5057214;28;20036;-71
2022/10/02 05:37:11;;;;;;;1.42;0.13;;;12.40;99.90;;;;;;5057440;28;20029;-70
2022/10/02 05:39:58;;;;;;;3.08;0.30;;;12.40;99.90;;;;;;5057456;28;20029;-70
2022/10/02 05:42:35;;;;;;;2.80;0.40;;;12.50;99.90;;;;;;5039359;28;20029;-70
2022/10/02 05:45:10;;;;;;;3.28;0.40;;;12.60;99.90;;;;;;5057221;28;20032;-70
2022/10/02 05:47:44;;;;;;;5.70;0.65;;;12.70;99.90;;;;;;5057076;28;20029;-71
2022/10/02 05:50:22;;;;;;;1.73;0.30;;;12.80;99.90;;;;;;5057034;28;20032;-71
2022/10/02 05:53:03;;;;;;;3.90;0.57;;;12.90;99.90;;;;;;5038857;28;20029;-70
2022/10/02 05:55:42;;;;;;;4.95;0.57;;;13.00;99.90;;;;;;5056637;28;20033;-70
2022/10/02 05:58:27;;;;;;;;;;;13.00;99.90;;;;;;5039300;28;20162;-70
2022/10/02 06:01:05;;;;;;;2.10;0.47;;;13.10;99.90;;;;;;5056790;28;19905;-70
2022/10/02 06:03:43;;;;;;;0.77;0.40;;;13.20;99.90;;;;;;5056671;28;20123;-71
2022/10/02 06:06:17;;;;;;;2.22;0.40;;;13.20;99.90;;;;;;5039260;28;20037;-71
2022/10/02 06:08:58;;;;;;;1.33;0.32;;;13.40;99.90;;;;;;5056484;28;20029;-70
2022/10/02 06:11:39;;;;;;;3.83;0.77;;;13.60;99.90;;;;;;5038777;28;20046;-68
2022/10/02 06:14:09;;;;;;;3.80;0.80;;;13.80;99.90;;;;;;5056646;28;20116;-71
2022/10/02 06:16:56;;;;;;;2.85;0.30;;;13.90;99.90;;;;;;5056480;28;20048;-70
2022/10/02 06:19:52;;;;;;;0.30;0.20;;;14.10;99.90;;;;;;5038563;28;20033;-69
2022/10/02 06:22:23;;;;;;;3.67;0.57;;;14.20;99.90;;;;;;5038529;28;20064;-70
2022/10/02 06:25:02;;;;;;;2.67;0.40;;;14.30;99.90;;;;;;5056846;28;20040;-69
2022/10/02 06:27:43;;;;;;;5.15;0.40;;;14.30;99.90;;;;;;5056863;28;20044;-69
2022/10/02 06:30:15;;;;;;;1.88;0.52;;;14.20;99.90;;;;;;5038355;28;20079;-71
2022/10/02 06:32:55;;;;;;;3.72;0.70;;;14.20;99.90;;;;;;5038358;28;20127;-71
2022/10/02 06:35:50;;;;;;;4.15;0.77;;;14.40;99.90;;;;;;5056130;28;20107;-73
2022/10/02 06:38:47;;;;;;;2.25;0.30;;;14.60;99.90;;;;;;5020247;28;20029;-72
2022/10/02 06:41:31;;;;;;;3.88;0.63;;;14.70;99.90;;;;;;5048329;28;20125;-72
2022/10/02 06:44:07;;;;;;;3.80;0.85;;;14.70;99.90;;;;;;5037978;28;20033;-72
2022/10/02 06:46:38;;;;;;;5.05;0.57;;;14.60;99.90;;;;;;5055916;28;20025;-72
2022/10/02 06:49:38;;;;;;;2.30;0.63;;;14.50;99.90;;;;;;5037857;28;20500;-72
2022/10/02 06:52:42;;;;;;;1.20;0.75;;;14.60;99.90;;;;;;5055935;28;20112;-72
2022/10/02 06:55:26;;;;;;;3.28;0.77;;;14.30;99.90;;;;;;5038616;28;20033;-76
2022/10/02 06:58:29;;;;;;;1.90;0.77;;;14.40;99.90;;;;;;5055911;28;20025;-61
2022/10/02 07:01:34;;;;;;;2.40;0.60;;;14.80;99.90;;;;;;5055609;28;20369;-58
2022/10/02 07:04:18;;;;;;;3.00;0.60;;;15.10;99.90;;;;;;5009122;28;20065;-71
2022/10/02 07:07:05;;;;;;;1.23;0.68;;;15.30;99.90;;;;;;5055081;28;20031;-70
2022/10/02 07:10:21;;;;;;;3.58;1.05;;;15.60;99.90;;;;;;5055408;28;20036;-70
2022/10/02 07:13:06;;;;;;;1.10;0.40;;;15.80;99.90;;;;;;4983986;28;20040;-70
2022/10/02 07:16:05;;;;;;;2.38;0.70;;;15.50;99.90;;;;;;5037490;28;20027;-70
2022/10/02 07:18:43;;;;;;;3.78;1.50;;;15.60;99.90;;;;;;5037310;28;20376;-70
2022/10/02 07:21:40;;;;;;;3.10;0.60;;;15.50;99.90;;;;;;5055217;28;20082;-71
2022/10/02 07:24:40;;;;;;;1.88;0.52;;;15.60;99.90;;;;;;5054898;28;20098;-71
2022/10/02 07:27:17;;;;;;;5.03;0.80;;;15.90;99.90;;;;;;5037054;28;20032;-70
2022/10/02 07:30:06;;;;;;;3.10;0.50;;;16.80;99.90;;;;;;5055049;28;20029;-71
2022/10/02 07:32:47;;;;;;;3.28;0.28;;;17.00;99.90;;;;;;5054300;28;20036;-69
2022/10/02 07:35:31;;;;;;;2.63;0.45;;;16.70;99.90;;;;;;5055042;28;20024;-68
2022/10/02 07:38:15;;;;;;;0.95;0.60;;;16.60;99.90;;;;;;5055050;28;20023;-68
2022/10/02 07:40:53;;;;;;;1.95;0.50;;;16.20;99.90;;;;;;5054635;28;20136;-72
2022/10/02 07:43:44;;;;;;;2.78;0.68;;;15.90;99.90;;;;;;5037047;28;20033;-70
2022/10/02 07:46:14;;;;;;;3.00;0.93;;;15.40;99.90;;;;;;5036936;28;20388;-70
2022/10/02 07:48:49;;;;;;;4.60;0.80;;;15.10;99.90;;;;;;5037070;28;20083;-70
2022/10/02 07:51:47;;;;;;;1.63;0.60;;;14.90;99.90;;;;;;5036669;28;20473;-70
2022/10/02 07:54:39;;;;;;;1.13;0.47;;;14.70;99.90;;;;;;5036705;28;20484;-57
2022/10/02 07:57:25;;;;;;;2.17;1.05;;;14.80;99.90;;;;;;5054878;28;20403;-58
2022/10/02 07:59:58;;;;;;;1.50;0.73;;;14.90;99.90;;;;;;5054733;28;20029;-57
2022/10/02 08:02:40;;;;;;;2.63;0.50;;;14.90;99.90;;;;;;5054524;28;20069;-57
2022/10/02 08:05:17;;;;;;;1.75;0.50;;;15.00;99.90;;;;;;5054317;28;20060;-73
2022/10/02 08:07:49;;;;;;;2.55;0.43;;;14.70;99.90;;;;;;5036445;28;20082;-71
2022/10/02 08:10:19;;;;;;;1.17;0.60;;;14.50;99.90;;;;;;5036892;28;20025;-71
2022/10/02 08:12:59;;;;;;;0.82;0.60;;;14.40;99.90;;;;;;5036239;28;20029;-74
2022/10/02 08:15:32;;;;;;;2.53;0.75;;;14.40;99.90;;;;;;5036348;28;20067;-75
2022/10/02 08:18:05;;;;;;;0.60;0.60;;;14.30;99.90;;;;;;5054199;28;20060;-73
2022/10/02 08:20:35;;;;;;;1.13;0.60;;;14.30;99.90;;;;;;5036295;28;20091;-74
2022/10/02 08:23:22;;;;;;;3.67;0.47;;;14.30;99.90;;;;;;5054344;28;20090;-77
2022/10/02 08:26:03;;;;;;;3.03;0.70;;;14.40;99.90;;;;;;5036338;28;20436;-74
2022/10/02 08:28:41;;;;;;;2.35;0.60;;;14.40;99.90;;;;;;5054081;28;20028;-76
2022/10/02 08:31:12;;;;;;;2.10;0.55;;;14.50;99.90;;;;;;5036065;28;20483;-73
2022/10/02 08:33:43;;;;;;;1.85;0.57;;;14.60;99.90;;;;;;5036492;28;20029;-78
2022/10/02 08:36:37;;;;;;;4.00;0.88;;;14.70;99.90;;;;;;5054062;28;20036;-76
2022/10/02 08:39:34;;;;;;;3.45;0.65;;;14.80;99.90;;;;;;5052981;28;20025;-77
2022/10/02 08:42:05;;;;;;;1.88;0.75;;;14.90;99.90;;;;;;5036074;28;20362;-72
2022/10/02 08:45:02;;;;;;;2.15;0.40;;;15.00;99.90;;;;;;5035897;28;20032;-58
2022/10/02 08:47:57;;;;;;;3.83;0.40;;;15.10;99.90;;;;;;5053783;28;20021;-58
2022/10/02 08:50:55;;;;;;;2.67;0.45;;;15.30;99.90;;;;;;5017741;28;20037;-57
2022/10/02 08:53:57;;;;;;;2.03;0.70;;;15.40;99.90;;;;;;5053387;28;20095;-57
2022/10/02 08:56:50;;;;;;;2.25;0.85;;;15.60;99.90;;;;;;5053337;28;20031;-58
2022/10/02 08:59:43;;;;;;;2.08;0.40;;;15.90;99.90;;;;;;5053405;28;20025;-58
2022/10/02 09:02:12;;;;;;;1.75;0.60;;;16.30;99.90;;;;;;5053696;28;20488;-57
2022/10/02 09:05:22;;;;;;;4.63;0.40;;;16.50;99.90;;;;;;5053972;28;20584;-57
2022/10/02 09:08:25;;;;;;;2.75;0.45;;;17.00;99.90;;;;;;5053430;28;20388;-58
2022/10/02 09:10:57;;;;;;;1.00;0.30;;;17.40;99.90;;;;;;5053468;28;20428;-71
2022/10/02 09:13:41;;;;;;;1.42;0.40;;;17.60;99.90;;;;;;5053635;28;20071;-72
2022/10/02 09:16:28;;;;;;;2.42;0.95;;;17.80;99.90;;;;;;5053628;28;20029;-72
2022/10/02 09:18:59;;;;;;;3.45;0.30;;;17.70;99.90;;;;;;5053487;28;20061;-72
2022/10/02 09:21:51;;;;;;;0.85;0.60;;;17.60;99.90;;;;;;5035234;28;20033;-73
2022/10/02 09:25:05;;;;;;;1.58;0.22;;;17.60;99.90;;;;;;5053319;28;20025;-73
2022/10/02 09:28:02;;;;;;;2.22;0.40;;;17.80;99.90;;;;;;4981340;28;20029;-73
2022/10/02 09:30:46;;;;;;;1.65;0.30;;;18.60;99.90;;;;;;5053647;28;20031;-73
2022/10/02 09:33:47;;;;;;;2.05;0.32;;;18.40;99.90;;;;;;5053309;28;20449;-73
2022/10/02 09:36:26;;;;;;;2.92;0.82;;;18.20;99.90;;;;;;4997643;28;20033;-73
2022/10/02 09:39:08;;;;;;;2.03;0.50;;;17.70;99.90;;;;;;5053284;28;20048;-73
2022/10/02 09:41:52;;;;;;;0.57;0.20;;;17.20;99.90;;;;;;5035204;28;20025;-73
2022/10/02 09:44:30;;;;;;;3.03;0.60;;;16.80;99.90;;;;;;5053558;28;20021;-73
2022/10/02 09:47:51;;;;;;;3.00;0.50;;;16.50;99.90;;;;;;5052965;28;20469;-73
2022/10/02 09:50:34;;;;;;;1.58;0.68;;;16.20;99.90;;;;;;4936800;29;20035;-73
2022/10/02 09:53:31;;;;;;;1.58;0.40;;;16.20;99.90;;;;;;5044613;28;20132;-73
2022/10/02 09:56:02;;;;;;;2.22;0.60;;;16.30;99.90;;;;;;5036287;28;20043;-73
2022/10/02 09:58:55;;;;;;;2.85;0.47;;;16.30;99.90;;;;;;5056856;28;20052;-73
2022/10/02 10:01:58;;;;;;;2.13;0.28;;;16.30;99.90;;;;;;5056850;28;20094;-72
2022/10/02 10:04:56;;;;;;;1.88;0.43;;;16.20;99.90;;;;;;5038262;28;20049;-73
2022/10/02 10:07:42;;;;;;;1.85;0.30;;;16.20;99.90;;;;;;5038591;28;20018;-73
2022/10/02 10:10:30;;;;;;;3.45;0.73;;;16.30;99.90;;;;;;5038299;28;20029;-73
2022/10/02 10:13:06;;;;;;;1.67;0.40;;;16.40;99.90;;;;;;5038569;28;20029;-73
2022/10/02 10:15:55;;;;;;;0.73;0.20;;;16.50;99.90;;;;;;5055987;28;20108;-73
2022/10/02 10:18:38;;;;;;;;;;;16.70;99.90;;;;;;5057094;28;20029;-73
2022/10/02 10:21:41;;;;;;;3.67;0.30;;;16.90;99.90;;;;;;5056334;28;19911;-73
2022/10/02 10:24:51;;;;;;;0.63;0.20;;;17.00;99.90;;;;;;5056267;28;20461;-71
2022/10/02 10:27:38;;;;;;;2.35;0.40;;;17.20;99.90;;;;;;4955846;29;20027;-71
2022/10/02 10:30:29;;;;;;;2.17;0.30;;;17.00;99.90;;;;;;4956135;29;20039;-71
2022/10/02 10:33:43;;;;;;;2.05;0.40;;;16.80;99.90;;;;;;5021613;28;20393;-70
2022/10/02 10:39:37;;;;;;;2.65;0.70;;;16.50;99.90;;;;;;5055709;28;20079;-72
2022/10/02 10:42:37;;;;;;;4.15;0.73;;;16.40;99.90;;;;;;5056121;28;20033;-71
2022/10/02 10:45:38;;;;;;;2.25;0.30;;;16.50;99.90;;;;;;5037922;28;20024;-71
2022/10/02 10:48:17;;;;;;;2.45;0.35;;;16.80;99.90;;;;;;4985944;28;20068;-73
2022/10/02 10:50:44;;;;;;;3.00;0.60;;;17.20;99.90;;;;;;5055935;28;20021;-72
2022/10/02 10:53:20;;;;;;;1.70;0.45;;;17.30;99.90;;;;;;5055656;28;20119;-72
2022/10/02 10:56:35;;;;;;;4.15;0.50;;;16.80;99.90;;;;;;5055673;28;20025;-72
2022/10/02 10:59:34;;;;;;;1.45;0.35;;;16.70;99.90;;;;;;5048120;28;20175;-72
2022/10/02 11:02:22;;;;;;;2.83;0.60;;;16.60;99.90;;;;;;5037663;28;20021;-72
2022/10/02 11:04:49;;;;;;;2.05;0.93;;;16.60;99.90;;;;;;5037231;28;20053;-72
2022/10/02 11:07:38;;;;;;;3.17;0.30;;;16.60;99.90;;;;;;5037267;28;20021;-72
2022/10/02 11:10:14;;;;;;;1.00;0.40;;;16.50;99.90;;;;;;4989938;28;20546;-72
2022/10/02 11:13:11;;;;;;;1.77;0.50;;;16.60;99.90;;;;;;5037591;28;20032;-72
2022/10/02 11:15:58;;;;;;;3.42;0.50;;;16.70;99.90;;;;;;5048169;28;20041;-72
2022/10/02 11:18:38;;;;;;;1.90;0.52;;;16.90;99.90;;;;;;5055355;28;20020;-72
2022/10/02 11:21:04;;;;;;;2.38;0.50;;;17.20;99.90;;;;;;5055224;28;20497;-72
2022/10/02 11:23:45;;;;;;;3.17;0.45;;;17.40;99.90;;;;;;5055418;28;20037;-72
2022/10/02 11:26:11;;;;;;;2.38;0.73;;;18.20;99.90;;;;;;5054657;28;20048;-72
2022/10/02 11:29:14;;;;;;;1.02;0.30;;;19.00;99.90;;;;;;5054950;28;20096;-72
2022/10/02 11:32:13;;;;;;;1.08;0.32;;;19.50;99.90;;;;;;5054666;28;20473;-72
2022/10/02 11:34:53;;;;;;;3.60;0.70;;;20.00;99.90;;;;;;5037247;28;20388;-72
2022/10/02 11:37:37;;;;;;;0.65;0.13;;;19.80;99.90;;;;;;5037142;28;20036;-73
2022/10/02 11:40:59;;;;;;;1.73;1.00;;;18.60;99.90;;;;;;5055321;28;20044;-73
2022/10/02 11:43:42;;;;;;;1.38;0.52;;;17.90;99.90;;;;;;4943513;28;20122;-73
2022/10/02 11:46:45;;;;;;;1.52;0.50;;;17.30;99.90;;;;;;5054822;28;20025;-72
2022/10/02 11:49:52;;;;;;;3.25;0.30;;;16.90;99.90;;;;;;5036678;28;20047;-73
2022/10/02 11:52:50;;;;;;;1.15;0.40;;;16.90;99.90;;;;;;5037079;28;20025;-73
2022/10/02 11:55:21;;;;;;;3.03;0.40;;;16.70;99.90;;;;;;5036598;28;20486;-72
2022/10/02 11:58:13;;;;;;;2.80;0.68;;;16.70;99.90;;;;;;5036892;28;20035;-73
2022/10/02 12:01:04;;;;;;;1.42;0.70;;;16.60;99.90;;;;;;5054655;28;20476;-72
2022/10/02 12:03:51;;;;;;;1.90;0.85;;;16.40;99.90;;;;;;5036583;28;20106;-72
2022/10/02 12:06:35;;;;;;;2.55;0.28;;;16.10;99.90;;;;;;5053684;28;20473;-72
2022/10/02 12:09:25;;;;;;;1.73;0.40;;;16.00;99.90;;;;;;5036753;28;20116;-73
2022/10/02 12:12:06;;;;;;;1.80;0.50;;;15.90;99.90;;;;;;5036516;28;20029;-73
2022/10/02 12:15:03;;;;;;;2.95;0.93;;;15.60;99.90;;;;;;5053962;28;20393;-71
2022/10/02 12:17:32;;;;;;;1.42;0.77;;;15.40;99.90;;;;;;5036420;28;20028;-71
2022/10/02 12:27:08;;;;;;;2.10;0.70;;;15.00;99.90;;;;;;5053931;28;20040;-71
2022/10/02 12:29:55;;;;;;;1.05;0.30;;;14.90;99.90;;;;;;5036702;28;20029;-72
2022/10/02 12:32:26;;;;;;;1.35;0.30;;;14.90;99.90;;;;;;5054064;28;20032;-71
2022/10/02 12:35:00;;;;;;;2.58;0.68;;;14.70;99.90;;;;;;5054010;28;20033;-72
2022/10/02 12:37:43;;;;;;;2.08;0.45;;;14.60;99.90;;;;;;5054135;28;20051;-59
2022/10/02 12:40:22;;;;;;;2.03;0.30;;;14.60;99.90;;;;;;5036381;28;20025;-59
2022/10/02 12:42:48;;;;;;;;;;;14.60;99.90;;;;;;5053933;28;20040;-72
2022/10/02 12:45:30;;;;;;;1.45;0.45;;;14.50;99.90;;;;;;5053844;28;19905;-72
2022/10/02 12:48:32;;;;;;;3.88;0.45;;;14.50;99.90;;;;;;5053796;28;20025;-72
2022/10/02 12:51:16;;;;;;;1.35;0.98;;;14.30;99.90;;;;;;5035882;28;20032;-71
2022/10/02 12:54:06;;;;;;;0.82;0.35;;;14.30;99.90;;;;;;5036001;28;20064;-71
2022/10/02 12:56:51;;;;;;;4.18;0.30;;;14.20;99.90;;;;;;5035830;28;20025;-70
2022/10/02 12:59:48;;;;;;;3.03;0.40;;;14.10;99.90;;;;;;5035947;28;20036;-71
2022/10/02 13:02:34;;;;;;;4.93;0.30;;;14.10;99.90;;;;;;5035151;28;20388;-72
2022/10/02 13:05:24;;;;;;;4.25;1.20;;;14.00;99.90;;;;;;5035603;28;20444;-69
2022/10/02 13:08:17;;;;;;;1.52;0.40;;;13.90;99.90;;;;;;5053864;28;20033;-70
2022/10/02 13:10:48;;;;;;;1.23;0.45;;;13.90;99.90;;;;;;5035940;28;20025;-70
2022/10/02 13:13:15;;;;;;;1.77;0.28;;;13.80;99.90;;;;;;5053519;28;20536;-70
2022/10/02 13:16:19;;;;;;;2.42;0.47;;;13.80;99.90;;;;;;5035560;28;20116;-70
2022/10/02 13:19:24;;;;;;;3.05;0.68;;;13.70;99.90;;;;;;5053429;28;20018;-71
2022/10/02 13:22:00;;;;;;;0.80;0.40;;;13.70;99.90;;;;;;5035562;28;20480;-73
2022/10/02 13:24:35;;;;;;;3.20;0.70;;;13.70;99.90;;;;;;5053513;28;20535;-73
2022/10/02 13:27:15;;;;;;;3.80;1.75;;;13.70;99.90;;;;;;5053397;28;20025;-72
2022/10/02 13:30:20;;;;;;;2.70;0.50;;;13.60;99.90;;;;;;5053296;28;20453;-70
2022/10/02 13:32:45;;;;;;;4.13;0.50;;;13.60;99.90;;;;;;5056235;28;20102;-72
2022/10/02 13:35:29;;;;;;;3.08;0.70;;;13.60;99.90;;;;;;5057090;28;20037;-72
2022/10/02 13:38:13;;;;;;;3.33;0.60;;;13.60;99.90;;;;;;5039264;28;20106;-72
2022/10/02 13:40:57;;;;;;;3.40;0.43;;;13.60;99.90;;;;;;5057199;28;20025;-68
2022/10/02 13:43:33;;;;;;;2.55;0.40;;;13.50;99.90;;;;;;5057385;28;20056;-69
2022/10/02 13:46:12;;;;;;;2.83;0.40;;;13.50;99.90;;;;;;5057110;28;20017;-69
2022/10/02 13:49:02;;;;;;;2.75;0.50;;;13.40;99.90;;;;;;5039297;28;20484;-69
2022/10/02 13:51:33;;;;;;;3.55;0.50;;;13.40;99.90;;;;;;5038998;28;20086;-69
2022/10/02 13:54:07;;;;;;;2.25;0.57;;;13.40;99.90;;;;;;5056539;28;20117;-69
2022/10/02 13:56:42;;;;;;;2.22;0.65;;;13.40;99.90;;;;;;5056697;28;20079;-69
2022/10/02 13:59:34;;;;;;;1.08;0.40;;;13.40;99.90;;;;;;5056702;28;20021;-70
2022/10/02 14:02:06;;;;;;;1.98;0.40;;;13.40;99.90;;;;;;5039524;28;20044;-69
2022/10/02 14:04:56;;;;;;;3.85;1.08;;;13.40;99.90;;;;;;5056668;28;20049;-69
2022/10/02 14:07:34;;;;;;;3.35;0.90;;;13.40;99.90;;;;;;5056566;28;20472;-70
2022/10/02 14:10:09;;;;;;;4.27;0.60;;;13.50;99.90;;;;;;5056629;28;20028;-70
2022/10/02 14:12:53;;;;;;;4.40;0.70;;;13.40;99.90;;;;;;5038151;28;20040;-69
2022/10/02 14:15:38;;;;;;;5.50;0.70;;;13.40;99.90;;;;;;5056479;28;20029;-71